Skip Navigation LinksHome page > Weather > Current weather Skip Navigation Links

Current Weather

Aeroflex-Andover, Andover, N.J.

For information only: do not use for flight planning or navigation.
Latest weather
Observation time Saturday, July 11, 2020 9:54 PM EDT
Local time Saturday, July 11, 2020 10:28 PM EDT
Flight conditions Conditions unknown
Winds
Wind speed calm
Sky condition
Ceiling unlimited
Temperature 72°F
Dewpoint 70°F
Altimeter 29.69 in.Hg
Derived measurements
Relative humidity 94%
Density altitude 2025 ft.
Sea-level pressure 29.66 in.Hg
Remarks
Fully automated report.
System requires maintenance.
Automated weather observing station without precipitation discriminator.
METAR K12N 120154Z AUTO 00000KT 22/21 A2969 RMK AO1 SLP045 T02220211 $

Settings

Location code

InnerDrive.Weather 4.0.6770.0 Release CLR 4.0.30319.42000
Copyright ©2018 Inner Drive Technology. All rights reserved. Portions Copyright ©1986-2018 David Braverman.

Find weather

Site navigation


Skip Navigation Links

Place info

Page info

PayPal - The safer, easier way to pay online!

Return home.

Copyright ©2020 Inner Drive Technology. Purveyors of fine, hand-crafted computer software. Page printed 2020-07-12T02:28:01 UTC.